Albion, Illinois
Current Conditions -  °F | °C
As of 3:35 PM on Saturday 20 Dec 2014 (Local Time) from KFWC Reporting Station
Clear Clear  
Wind Chill:   Ceiling: Unl
Heat Index:   Visibility: 10mi
Dew Point: -3°   Wind: 0mph
Humidity: 66%   Direction: NA
Pressure: 30.26"   Gusts: NA
Location:  38.38°N, 88.06°W
Report Text: KFWC 202135Z AUTO 00000KT 10SM CLR 03/M03 A3026 RMK AO1 T00301027
Loading
Personal Weather Stations






























Interactive Weather Map New forecast layout! Learn more

10-Day Weather Forecast

Advertisements
Track Severe Weather on mobile